Time;durP1;ratioP1;P1;durP2;ratioP2;P2;SDS_P1;SDS_P2;PMS_P1;PMS_P2;Temp;Humidity;BMP_temperature;BMP_pressure;BME280_temperature;BME280_humidity;BME280_pressure;Samples;Min_cycle;Max_cycle;Signal;HPM_P1;HPM_P2
2021/04/10 00:00:07;;;;;;;8.77;5.78;;;;;;;;;;5101717;28;20237;-61
2021/04/10 00:02:34;;;;;;;11.25;6.20;;;;;;;;;;5101285;28;20199;-61
2021/04/10 00:05:01;;;;;;;9.23;6.40;;;;;;;;;;5100314;28;20246;-61
2021/04/10 00:07:28;;;;;;;6.80;5.55;;;;;;;;;;5098675;28;20630;-61
2021/04/10 00:09:55;;;;;;;10.18;6.55;;;;;;;;;;5097546;28;20668;-61
2021/04/10 00:12:22;;;;;;;8.93;6.07;;;;;;;;;;5097401;28;20215;-61
2021/04/10 00:14:48;;;;;;;14.02;6.57;;;;;;;;;;5097959;28;20224;-61
2021/04/10 00:17:15;;;;;;;9.00;6.20;;;;;;;;;;5094947;28;20582;-61
2021/04/10 00:19:43;;;;;;;10.10;6.65;;;;;;;;;;5095177;28;20632;-61
2021/04/10 00:22:10;;;;;;;10.60;7.97;;;;;;;;;;5094938;28;20204;-61
2021/04/10 00:24:37;;;;;;;8.57;6.18;;;;;;;;;;5098158;28;20268;-61
2021/04/10 00:27:04;;;;;;;11.15;7.65;;;;;;;;;;5098437;28;20196;-62
2021/04/10 00:29:31;;;;;;;10.95;7.97;;;;;;;;;;5098768;28;20231;-61
2021/04/10 00:31:58;;;;;;;9.10;7.13;;;;;;;;;;5098463;28;20196;-61
2021/04/10 00:34:25;;;;;;;12.82;7.18;;;;;;;;;;5099027;28;20228;-62
2021/04/10 00:36:51;;;;;;;14.80;8.48;;;;;;;;;;5098502;28;20211;-61
2021/04/10 00:39:18;;;;;;;8.95;7.15;;;;;;;;;;5099129;28;20196;-61
2021/04/10 00:41:46;;;;;;;7.20;6.50;;;;;;;;;;5100749;28;20204;-61
2021/04/10 00:44:12;;;;;;;7.57;6.55;;;;;;;;;;5098250;28;20233;-61
2021/04/10 00:46:39;;;;;;;9.23;6.60;;;;;;;;;;5100810;28;20200;-61
2021/04/10 00:49:06;;;;;;;9.10;6.55;;;;;;;;;;5098293;28;20224;-61
2021/04/10 00:51:33;;;;;;;8.82;6.40;;;;;;;;;;5097313;28;20207;-61
2021/04/10 00:54:00;;;;;;;7.22;6.20;;;;;;;;;;5097252;28;20204;-61
2021/04/10 00:56:26;;;;;;;10.20;6.68;;;;;;;;;;5097311;28;20223;-61
2021/04/10 00:58:54;;;;;;;13.68;5.20;;;;;;;;;;5097789;28;20200;-60
2021/04/10 01:01:22;;;;;;;6.75;4.55;;;;;;;;;;5097903;28;20660;-61
2021/04/10 01:03:49;;;;;;;13.45;5.30;;;;;;;;;;5097733;28;20200;-61
2021/04/10 01:06:15;;;;;;;8.18;5.38;;;;;;;;;;5096796;28;20238;-61
2021/04/10 01:08:42;;;;;;;7.75;5.50;;;;;;;;;;5096792;28;20224;-62
2021/04/10 01:11:12;;;;;;;9.77;5.40;;;;;;;;;;5096968;28;20257;-62
2021/04/10 01:13:43;;;;;;;7.18;5.55;;;;;;;;;;5097172;28;20204;-61
2021/04/10 01:16:13;;;;;;;5.97;5.18;;;;;;;;;;5096647;28;20227;-61
2021/04/10 01:18:45;;;;;;;8.68;6.30;;;;;;;;;;5097069;28;20234;-61
2021/04/10 01:21:19;;;;;;;8.05;5.68;;;;;;;;;;5109779;28;20188;-61
2021/04/10 01:24:01;;;;;;;8.68;6.05;;;;;;;;;;5116756;28;20206;-61
2021/04/10 01:26:49;;;;;;;8.88;6.57;;;;;;;;;;5117830;28;20227;-61
2021/04/10 01:29:17;;;;;;;12.75;5.15;;;;;;;;;;5112696;28;20238;-61
2021/04/10 01:31:45;;;;;;;6.95;5.40;;;;;;;;;;5117299;28;20204;-60
2021/04/10 01:34:13;;;;;;;8.48;5.35;;;;;;;;;;5116998;28;20215;-61
2021/04/10 01:36:41;;;;;;;7.20;5.45;;;;;;;;;;5115535;28;20208;-61
2021/04/10 01:39:09;;;;;;;7.80;5.55;;;;;;;;;;5108057;28;20222;-60
2021/04/10 01:41:36;;;;;;;8.63;5.68;;;;;;;;;;5112841;28;20207;-61
2021/04/10 01:44:04;;;;;;;8.80;5.45;;;;;;;;;;5113233;28;20200;-61
2021/04/10 01:46:32;;;;;;;7.55;5.40;;;;;;;;;;5112418;28;20333;-61
2021/04/10 01:48:59;;;;;;;8.13;5.03;;;;;;;;;;5110648;28;20220;-60
2021/04/10 01:51:26;;;;;;;10.73;5.32;;;;;;;;;;5107028;28;20204;-60
2021/04/10 01:53:54;;;;;;;8.93;5.50;;;;;;;;;;5105150;28;20204;-60
2021/04/10 01:56:21;;;;;;;8.88;5.68;;;;;;;;;;5109280;28;20242;-61
2021/04/10 01:58:48;;;;;;;8.60;6.10;;;;;;;;;;5110581;28;20197;-61
2021/04/10 02:01:16;;;;;;;9.02;5.05;;;;;;;;;;5110650;28;20246;-61
2021/04/10 02:03:45;;;;;;;8.35;5.63;;;;;;;;;;5111558;28;20664;-60
2021/04/10 02:06:12;;;;;;;8.05;6.03;;;;;;;;;;5100442;28;20239;-61
2021/04/10 02:08:40;;;;;;;7.90;6.68;;;;;;;;;;5097293;28;20220;-61
2021/04/10 02:11:08;;;;;;;7.18;6.22;;;;;;;;;;5096667;28;20222;-61
2021/04/10 02:13:35;;;;;;;10.38;7.35;;;;;;;;;;5096343;28;20223;-61
2021/04/10 02:16:02;;;;;;;8.77;6.47;;;;;;;;;;5096096;28;20224;-61
2021/04/10 02:18:29;;;;;;;9.98;7.32;;;;;;;;;;5096120;28;20200;-61
2021/04/10 02:20:58;;;;;;;11.00;7.95;;;;;;;;;;5096801;28;20679;-62
2021/04/10 02:23:25;;;;;;;9.23;7.00;;;;;;;;;;5096826;28;20204;-61
2021/04/10 02:25:52;;;;;;;9.20;7.28;;;;;;;;;;5096887;28;20220;-61
2021/04/10 02:28:19;;;;;;;10.88;6.82;;;;;;;;;;5096949;28;20212;-61
2021/04/10 02:30:46;;;;;;;11.48;7.20;;;;;;;;;;5096687;28;20611;-62
2021/04/10 02:33:15;;;;;;;8.30;6.38;;;;;;;;;;5096991;28;20208;-62
2021/04/10 02:35:43;;;;;;;9.65;6.13;;;;;;;;;;5095765;28;20223;-62
2021/04/10 02:38:12;;;;;;;11.00;6.13;;;;;;;;;;5096013;28;20229;-61
2021/04/10 02:40:40;;;;;;;9.45;5.35;;;;;;;;;;5095885;28;20200;-61
2021/04/10 02:43:08;;;;;;;10.80;5.32;;;;;;;;;;5095550;28;20200;-61
2021/04/10 02:45:35;;;;;;;10.23;6.32;;;;;;;;;;5095707;28;20707;-61
2021/04/10 02:48:04;;;;;;;9.48;5.88;;;;;;;;;;5094379;28;20605;-61
2021/04/10 02:50:31;;;;;;;9.48;5.68;;;;;;;;;;5095545;28;20207;-61
2021/04/10 02:53:02;;;;;;;7.40;5.00;;;;;;;;;;5095427;28;20211;-61
2021/04/10 02:55:33;;;;;;;7.53;4.68;;;;;;;;;;5094993;28;20224;-60
2021/04/10 02:58:01;;;;;;;8.95;4.82;;;;;;;;;;5094846;28;20180;-60
2021/04/10 03:00:28;;;;;;;8.00;4.78;;;;;;;;;;5095151;28;20216;-61
2021/04/10 03:02:56;;;;;;;8.35;4.97;;;;;;;;;;5095378;28;20211;-61
2021/04/10 03:05:23;;;;;;;6.82;5.22;;;;;;;;;;5096090;28;20221;-62
2021/04/10 03:07:52;;;;;;;9.13;5.57;;;;;;;;;;5105963;28;20211;-62
2021/04/10 03:10:19;;;;;;;12.02;6.30;;;;;;;;;;5105945;28;20196;-63
2021/04/10 03:12:47;;;;;;;7.22;4.75;;;;;;;;;;5095154;28;20204;-62
2021/04/10 03:15:15;;;;;;;7.15;4.45;;;;;;;;;;5094547;28;20273;-63
2021/04/10 03:17:42;;;;;;;8.20;5.50;;;;;;;;;;5094532;28;20204;-62
2021/04/10 03:20:11;;;;;;;8.73;5.18;;;;;;;;;;5094613;28;20208;-62
2021/04/10 03:22:38;;;;;;;10.40;5.93;;;;;;;;;;5094368;28;20207;-62
2021/04/10 03:25:06;;;;;;;7.28;4.90;;;;;;;;;;5095577;28;20246;-62
2021/04/10 03:27:33;;;;;;;8.13;4.97;;;;;;;;;;5095797;28;20234;-62
2021/04/10 03:30:01;;;;;;;8.18;5.45;;;;;;;;;;5096180;28;20220;-62
2021/04/10 03:32:28;;;;;;;8.65;5.00;;;;;;;;;;5095116;28;20204;-62
2021/04/10 03:34:55;;;;;;;7.90;5.68;;;;;;;;;;5094899;28;20650;-61
2021/04/10 03:37:22;;;;;;;8.85;5.57;;;;;;;;;;5094204;28;20204;-63
2021/04/10 03:39:49;;;;;;;6.85;5.25;;;;;;;;;;5096790;28;20203;-61
2021/04/10 03:42:19;;;;;;;13.77;6.57;;;;;;;;;;5099552;28;20230;-62
2021/04/10 03:44:45;;;;;;;12.85;5.30;;;;;;;;;;5094807;28;20265;-62
2021/04/10 03:47:13;;;;;;;8.45;4.88;;;;;;;;;;5093985;28;20200;-61
2021/04/10 03:49:40;;;;;;;13.02;7.15;;;;;;;;;;5093529;28;20216;-61
2021/04/10 03:52:07;;;;;;;8.98;4.93;;;;;;;;;;5093553;28;20212;-62
2021/04/10 03:54:33;;;;;;;8.55;5.13;;;;;;;;;;5093780;28;20241;-62
2021/04/10 03:57:00;;;;;;;6.30;4.57;;;;;;;;;;5093436;28;20233;-61
2021/04/10 03:59:28;;;;;;;10.48;5.00;;;;;;;;;;5093223;28;20200;-62
2021/04/10 04:01:55;;;;;;;8.82;4.82;;;;;;;;;;5093514;28;20295;-63
2021/04/10 04:04:22;;;;;;;15.77;6.50;;;;;;;;;;5093231;28;20200;-63
2021/04/10 04:07:59;;;;;;;13.63;5.05;;;;;;;;;;5111981;27;20590;-62
2021/04/10 04:10:26;;;;;;;14.00;4.85;;;;;;;;;;5111020;28;20207;-61
2021/04/10 04:12:53;;;;;;;9.52;4.47;;;;;;;;;;5110910;28;20579;-62
2021/04/10 04:15:19;;;;;;;10.52;5.00;;;;;;;;;;5111238;28;20247;-61
2021/04/10 04:17:46;;;;;;;13.75;5.03;;;;;;;;;;5110967;28;20207;-61
2021/04/10 04:20:13;;;;;;;10.80;4.95;;;;;;;;;;5111286;28;20204;-61
2021/04/10 04:22:40;;;;;;;19.10;5.03;;;;;;;;;;5110897;28;20659;-62
2021/04/10 04:25:09;;;;;;;11.38;5.40;;;;;;;;;;5110707;28;20223;-63
2021/04/10 04:27:36;;;;;;;14.00;5.20;;;;;;;;;;5111014;28;20222;-61
2021/04/10 04:30:03;;;;;;;9.05;4.50;;;;;;;;;;5110976;28;20207;-62
2021/04/10 04:32:30;;;;;;;11.27;4.00;;;;;;;;;;5111085;28;20210;-61
2021/04/10 04:34:56;;;;;;;12.02;4.95;;;;;;;;;;5113735;28;20226;-62
2021/04/10 04:37:23;;;;;;;11.23;4.10;;;;;;;;;;5112934;28;20195;-61
2021/04/10 04:39:50;;;;;;;12.65;4.45;;;;;;;;;;5111679;28;20207;-62
2021/04/10 04:42:18;;;;;;;13.32;4.90;;;;;;;;;;5111895;28;20203;-61
2021/04/10 04:44:45;;;;;;;9.25;4.95;;;;;;;;;;5111718;28;20738;-62
2021/04/10 04:47:12;;;;;;;8.02;4.55;;;;;;;;;;5111993;28;20290;-62
2021/04/10 04:49:38;;;;;;;12.38;4.72;;;;;;;;;;5112196;28;20253;-61
2021/04/10 04:52:06;;;;;;;13.32;5.57;;;;;;;;;;5111392;28;20200;-62
2021/04/10 04:54:32;;;;;;;8.75;4.07;;;;;;;;;;5111510;28;20220;-61
2021/04/10 04:56:59;;;;;;;10.02;4.50;;;;;;;;;;5111173;28;20196;-62
2021/04/10 04:59:27;;;;;;;12.15;5.00;;;;;;;;;;5110878;28;20204;-62
2021/04/10 05:01:53;;;;;;;11.38;5.60;;;;;;;;;;5110872;28;20199;-62
2021/04/10 05:04:20;;;;;;;14.32;4.82;;;;;;;;;;5110632;28;20211;-62
2021/04/10 05:06:47;;;;;;;7.70;4.85;;;;;;;;;;5110134;28;20220;-62
2021/04/10 05:09:14;;;;;;;8.93;4.70;;;;;;;;;;5110154;28;20616;-62
2021/04/10 05:11:40;;;;;;;14.35;5.60;;;;;;;;;;5110327;28;20210;-62
2021/04/10 05:14:07;;;;;;;10.27;4.72;;;;;;;;;;5112375;28;20207;-61
2021/04/10 05:16:35;;;;;;;12.43;5.60;;;;;;;;;;5112133;28;20248;-62
2021/04/10 05:19:01;;;;;;;12.80;5.00;;;;;;;;;;5100453;28;20273;-62
2021/04/10 05:21:28;;;;;;;10.18;5.70;;;;;;;;;;5097378;28;20257;-62
2021/04/10 05:23:55;;;;;;;10.07;5.70;;;;;;;;;;5097180;28;20226;-63
2021/04/10 05:26:22;;;;;;;14.80;5.75;;;;;;;;;;5097693;28;20216;-61
2021/04/10 05:28:48;;;;;;;12.77;5.63;;;;;;;;;;5098112;28;20200;-62
2021/04/10 05:31:15;;;;;;;9.88;5.05;;;;;;;;;;5098271;28;20668;-63
2021/04/10 05:33:44;;;;;;;9.40;6.32;;;;;;;;;;5099126;28;20195;-61
2021/04/10 05:36:10;;;;;;;9.25;5.07;;;;;;;;;;5097259;28;20303;-63
2021/04/10 05:38:37;;;;;;;20.55;5.95;;;;;;;;;;5096381;28;20204;-62
2021/04/10 05:41:04;;;;;;;11.82;6.03;;;;;;;;;;5096598;28;20204;-63
2021/04/10 05:43:31;;;;;;;10.63;5.55;;;;;;;;;;5096442;28;20204;-63
2021/04/10 05:45:58;;;;;;;11.95;6.38;;;;;;;;;;5096243;28;20227;-61
2021/04/10 05:48:24;;;;;;;9.07;5.90;;;;;;;;;;5096480;28;20233;-61
2021/04/10 05:50:52;;;;;;;12.00;5.80;;;;;;;;;;5096154;28;20217;-62
2021/04/10 05:53:19;;;;;;;11.68;6.50;;;;;;;;;;5096394;28;20204;-62
2021/04/10 05:55:45;;;;;;;9.95;6.88;;;;;;;;;;5096673;28;20220;-62
2021/04/10 05:58:12;;;;;;;11.13;7.00;;;;;;;;;;5097055;28;20204;-63
2021/04/10 06:00:39;;;;;;;9.80;7.40;;;;;;;;;;5095818;28;20429;-62
2021/04/10 06:03:07;;;;;;;15.15;7.50;;;;;;;;;;5096049;28;20196;-62
2021/04/10 06:05:34;;;;;;;10.07;6.95;;;;;;;;;;5095784;28;20231;-63
2021/04/10 06:08:02;;;;;;;11.18;6.43;;;;;;;;;;5095951;28;20224;-62
2021/04/10 06:10:28;;;;;;;12.52;6.93;;;;;;;;;;5095579;28;20200;-62
2021/04/10 06:12:55;;;;;;;11.68;6.15;;;;;;;;;;5098590;28;20207;-62
2021/04/10 06:15:22;;;;;;;11.85;6.95;;;;;;;;;;5097890;28;20220;-62
2021/04/10 06:17:49;;;;;;;19.15;7.78;;;;;;;;;;5095389;28;20207;-63
2021/04/10 06:20:17;;;;;;;14.70;7.30;;;;;;;;;;5095458;28;20197;-61
2021/04/10 06:22:44;;;;;;;11.32;6.97;;;;;;;;;;5094993;28;20207;-62
2021/04/10 06:25:12;;;;;;;11.93;7.50;;;;;;;;;;5097869;28;20220;-63
2021/04/10 06:27:39;;;;;;;16.80;7.20;;;;;;;;;;5099186;28;20216;-62
2021/04/10 06:30:06;;;;;;;10.73;6.07;;;;;;;;;;5107447;28;20207;-62
2021/04/10 06:32:33;;;;;;;13.90;7.30;;;;;;;;;;5103437;28;20200;-61
2021/04/10 06:35:00;;;;;;;11.88;6.03;;;;;;;;;;5096983;28;20231;-61
2021/04/10 06:37:27;;;;;;;14.48;7.35;;;;;;;;;;5096137;28;20211;-63
2021/04/10 06:39:53;;;;;;;14.98;7.78;;;;;;;;;;5095161;28;20207;-62
2021/04/10 06:42:21;;;;;;;14.07;6.90;;;;;;;;;;5094908;28;20204;-63
2021/04/10 06:44:48;;;;;;;14.25;7.07;;;;;;;;;;5095283;28;20220;-62
2021/04/10 06:47:17;;;;;;;11.50;6.63;;;;;;;;;;5095095;28;20306;-63
2021/04/10 06:49:44;;;;;;;14.30;7.78;;;;;;;;;;5095065;28;20208;-60
2021/04/10 06:52:10;;;;;;;14.77;6.65;;;;;;;;;;5094757;28;20200;-62
2021/04/10 06:54:39;;;;;;;11.05;6.78;;;;;;;;;;5094403;28;20224;-62
2021/04/10 06:57:08;;;;;;;11.45;7.40;;;;;;;;;;5094239;28;20253;-61
2021/04/10 06:59:40;;;;;;;11.45;6.45;;;;;;;;;;5094289;28;20196;-62
2021/04/10 07:02:11;;;;;;;12.98;6.90;;;;;;;;;;5094639;28;20273;-63
2021/04/10 07:04:38;;;;;;;14.10;7.82;;;;;;;;;;5094786;28;20307;-62
2021/04/10 07:07:05;;;;;;;13.55;7.35;;;;;;;;;;5093948;28;20220;-62
2021/04/10 07:09:33;;;;;;;11.40;6.50;;;;;;;;;;5094534;28;20606;-61
2021/04/10 07:12:01;;;;;;;14.15;6.90;;;;;;;;;;5094163;28;20294;-61
2021/04/10 07:14:28;;;;;;;12.65;6.97;;;;;;;;;;5094603;28;20274;-63
2021/04/10 07:16:56;;;;;;;12.98;7.28;;;;;;;;;;5093879;28;20631;-61
2021/04/10 07:19:23;;;;;;;17.25;7.97;;;;;;;;;;5094120;28;20295;-62
2021/04/10 07:22:01;;;;;;;20.38;8.75;;;;;;;;;;5094483;28;20207;-62
2021/04/10 07:24:35;;;;;;;11.52;7.28;;;;;;;;;;5094369;28;20220;-60
2021/04/10 07:27:02;;;;;;;18.23;7.10;;;;;;;;;;5096587;28;20231;-62
2021/04/10 07:29:33;;;;;;;13.02;8.18;;;;;;;;;;5097221;28;20200;-60
2021/04/10 07:32:01;;;;;;;10.82;7.60;;;;;;;;;;5096295;28;20223;-60
2021/04/10 07:34:28;;;;;;;19.20;8.57;;;;;;;;;;5095319;28;20598;-61
2021/04/10 07:37:04;;;;;;;16.92;8.93;;;;;;;;;;5095625;28;20200;-61
2021/04/10 07:39:45;;;;;;;18.90;7.57;;;;;;;;;;5094810;28;20184;-61
2021/04/10 07:42:13;;;;;;;11.95;8.27;;;;;;;;;;5094349;28;20556;-61
2021/04/10 07:44:40;;;;;;;18.23;9.30;;;;;;;;;;5094213;28;20224;-61
2021/04/10 07:47:09;;;;;;;19.48;9.00;;;;;;;;;;5094422;28;20243;-61
2021/04/10 07:49:37;;;;;;;17.73;8.57;;;;;;;;;;5094171;28;20200;-60
2021/04/10 07:52:04;;;;;;;16.42;9.40;;;;;;;;;;5094521;28;20296;-61
2021/04/10 07:54:32;;;;;;;23.80;9.65;;;;;;;;;;5094035;28;20239;-61
2021/04/10 07:57:00;;;;;;;19.52;10.75;;;;;;;;;;5094343;28;20325;-61
2021/04/10 07:59:27;;;;;;;20.42;11.27;;;;;;;;;;5094486;28;20200;-61
2021/04/10 08:01:54;;;;;;;17.00;10.80;;;;;;;;;;5095624;28;20253;-61
2021/04/10 08:04:22;;;;;;;25.23;10.05;;;;;;;;;;5094026;28;20576;-61
2021/04/10 08:06:56;;;;;;;21.00;10.40;;;;;;;;;;5094484;28;20220;-61
2021/04/10 08:09:33;;;;;;;17.42;10.52;;;;;;;;;;5094753;28;20554;-63
2021/04/10 08:12:00;;;;;;;15.82;9.52;;;;;;;;;;5094254;28;20639;-62
2021/04/10 08:14:38;;;;;;;24.55;14.07;;;;;;;;;;5095663;28;20223;-62
2021/04/10 08:17:05;;;;;;;24.42;11.50;;;;;;;;;;5094530;28;20198;-62
2021/04/10 08:19:33;;;;;;;21.23;10.60;;;;;;;;;;5094419;28;20228;-62
2021/04/10 08:22:00;;;;;;;18.30;10.07;;;;;;;;;;5093774;28;20268;-61
2021/04/10 08:24:28;;;;;;;18.08;11.05;;;;;;;;;;5093550;28;20227;-60
2021/04/10 08:26:56;;;;;;;21.65;10.50;;;;;;;;;;5093891;28;20216;-62
2021/04/10 08:29:24;;;;;;;21.30;10.10;;;;;;;;;;5093938;28;20211;-63
2021/04/10 08:31:51;;;;;;;19.00;10.38;;;;;;;;;;5093850;28;20200;-63
2021/04/10 08:34:18;;;;;;;24.63;10.63;;;;;;;;;;5094056;28;20200;-64
2021/04/10 08:36:50;;;;;;;22.38;12.00;;;;;;;;;;5094265;28;20315;-64
2021/04/10 08:39:17;;;;;;;18.55;10.13;;;;;;;;;;5094567;28;20244;-64
2021/04/10 08:41:44;;;;;;;15.60;11.00;;;;;;;;;;5094530;28;20211;-65
2021/04/10 08:44:14;;;;;;;18.20;11.32;;;;;;;;;;5093873;28;20200;-63
2021/04/10 08:46:42;;;;;;;22.40;11.30;;;;;;;;;;5093806;28;20231;-63
2021/04/10 08:49:09;;;;;;;19.10;11.23;;;;;;;;;;5093309;28;20664;-63
2021/04/10 08:51:39;;;;;;;18.02;11.50;;;;;;;;;;5093802;28;20200;-64
2021/04/10 08:54:09;;;;;;;16.58;12.38;;;;;;;;;;5096705;28;20510;-64
2021/04/10 08:56:36;;;;;;;17.90;11.77;;;;;;;;;;5097537;28;20200;-63
2021/04/10 08:59:10;;;;;;;20.73;12.25;;;;;;;;;;5097326;28;20207;-63
2021/04/10 09:01:39;;;;;;;25.45;13.18;;;;;;;;;;5097229;28;20287;-61
2021/04/10 09:04:06;;;;;;;20.60;12.15;;;;;;;;;;5097991;28;20202;-64
2021/04/10 09:06:49;;;;;;;20.92;12.20;;;;;;;;;;5097854;28;20761;-62
2021/04/10 09:09:32;;;;;;;20.52;12.60;;;;;;;;;;5098007;28;20204;-65
2021/04/10 09:12:17;;;;;;;20.65;12.23;;;;;;;;;;5098201;28;20610;-64
2021/04/10 09:14:45;;;;;;;18.50;12.43;;;;;;;;;;5097822;28;20219;-65
2021/04/10 09:17:12;;;;;;;15.48;11.43;;;;;;;;;;5098352;28;20200;-64
2021/04/10 09:19:39;;;;;;;19.40;14.85;;;;;;;;;;5112292;28;20721;-64
2021/04/10 09:22:06;;;;;;;18.50;13.15;;;;;;;;;;5101015;28;20210;-63
2021/04/10 09:24:44;;;;;;;18.33;11.55;;;;;;;;;;5098342;28;20228;-63
2021/04/10 09:27:18;;;;;;;20.40;12.48;;;;;;;;;;5096681;28;20249;-63
2021/04/10 09:29:46;;;;;;;15.52;10.23;;;;;;;;;;5096973;28;20249;-62
2021/04/10 09:32:13;;;;;;;19.05;10.70;;;;;;;;;;5096640;28;20196;-64
2021/04/10 09:34:47;;;;;;;19.92;11.75;;;;;;;;;;5099205;28;20224;-60
2021/04/10 09:37:36;;;;;;;20.33;11.10;;;;;;;;;;5101095;28;20294;-62
2021/04/10 09:40:06;;;;;;;23.15;10.32;;;;;;;;;;5096112;28;20222;-64
2021/04/10 09:42:45;;;;;;;18.33;9.40;;;;;;;;;;5095906;28;20209;-64
2021/04/10 09:45:12;;;;;;;12.52;9.35;;;;;;;;;;5095880;28;20567;-62
2021/04/10 09:47:58;;;;;;;14.82;9.57;;;;;;;;;;5095678;28;20613;-63
2021/04/10 09:50:25;;;;;;;15.02;10.10;;;;;;;;;;5095622;28;20243;-65
2021/04/10 09:52:54;;;;;;;16.20;9.63;;;;;;;;;;5095172;28;20211;-62
2021/04/10 09:55:23;;;;;;;17.58;9.52;;;;;;;;;;5095336;28;20318;-63
2021/04/10 09:57:53;;;;;;;14.93;8.85;;;;;;;;;;5096576;28;20207;-63
2021/04/10 10:00:24;;;;;;;13.25;9.77;;;;;;;;;;5095918;28;20224;-63
2021/04/10 10:02:53;;;;;;;20.20;9.90;;;;;;;;;;5096314;28;20181;-64
2021/04/10 10:05:20;;;;;;;15.77;8.73;;;;;;;;;;5095314;28;20223;-62
2021/04/10 10:07:47;;;;;;;16.45;9.73;;;;;;;;;;5095096;28;20223;-65
2021/04/10 10:10:14;;;;;;;14.27;9.60;;;;;;;;;;5095902;28;20668;-62
2021/04/10 10:12:42;;;;;;;19.33;11.15;;;;;;;;;;5096158;28;20203;-64
2021/04/10 10:15:20;;;;;;;15.70;10.95;;;;;;;;;;5095243;28;20707;-64
2021/04/10 10:17:47;;;;;;;16.63;9.02;;;;;;;;;;5095877;28;20185;-63
2021/04/10 10:20:15;;;;;;;17.83;8.82;;;;;;;;;;5095557;28;20328;-64
2021/04/10 10:22:42;;;;;;;17.23;9.48;;;;;;;;;;5095275;28;20730;-63
2021/04/10 10:25:10;;;;;;;11.68;8.88;;;;;;;;;;5096064;28;20655;-63
2021/04/10 10:27:37;;;;;;;15.25;8.82;;;;;;;;;;5095371;28;20212;-62
2021/04/10 10:30:12;;;;;;;15.63;8.55;;;;;;;;;;5095369;28;20660;-62
2021/04/10 10:32:39;;;;;;;11.95;7.68;;;;;;;;;;5095516;28;20187;-63
2021/04/10 10:35:07;;;;;;;14.77;9.80;;;;;;;;;;5097106;28;20231;-65
2021/04/10 10:37:34;;;;;;;13.05;8.55;;;;;;;;;;5095214;28;20196;-64
2021/04/10 10:40:00;;;;;;;11.93;7.70;;;;;;;;;;5094923;28;20207;-64
2021/04/10 10:42:28;;;;;;;12.00;8.00;;;;;;;;;;5094459;28;20200;-65
2021/04/10 10:44:54;;;;;;;11.93;8.13;;;;;;;;;;5094885;28;20312;-64
2021/04/10 10:47:25;;;;;;;13.77;6.32;;;;;;;;;;5094846;28;20212;-64
2021/04/10 10:49:52;;;;;;;14.13;7.28;;;;;;;;;;5094784;28;20192;-64
2021/04/10 10:52:19;;;;;;;9.75;6.93;;;;;;;;;;5094848;28;20200;-63
2021/04/10 10:54:49;;;;;;;9.77;6.80;;;;;;;;;;5094797;28;20566;-62
2021/04/10 10:57:16;;;;;;;11.85;7.25;;;;;;;;;;5095775;28;20200;-64
2021/04/10 10:59:43;;;;;;;14.85;7.70;;;;;;;;;;5094841;28;20291;-62
2021/04/10 11:02:10;;;;;;;10.20;7.45;;;;;;;;;;5095197;28;20200;-62
2021/04/10 11:04:39;;;;;;;12.38;7.13;;;;;;;;;;5096701;28;20270;-63
2021/04/10 11:07:07;;;;;;;9.75;6.65;;;;;;;;;;5096825;28;20224;-61
2021/04/10 11:09:35;;;;;;;13.85;6.10;;;;;;;;;;5095739;28;20207;-61
2021/04/10 11:12:04;;;;;;;13.35;7.00;;;;;;;;;;5095003;28;20204;-61
2021/04/10 11:14:31;;;;;;;14.27;7.40;;;;;;;;;;5095868;28;20255;-62
2021/04/10 11:16:59;;;;;;;7.73;5.90;;;;;;;;;;5099815;28;20471;-61
2021/04/10 11:19:26;;;;;;;12.97;6.20;;;;;;;;;;5102018;28;20446;-64
2021/04/10 11:21:54;;;;;;;10.33;5.60;;;;;;;;;;5096853;28;20446;-64
2021/04/10 11:24:21;;;;;;;12.20;6.60;;;;;;;;;;5106942;28;20442;-64
2021/04/10 11:26:51;;;;;;;11.37;5.43;;;;;;;;;;5096757;28;20484;-64
2021/04/10 11:29:25;;;;;;;11.30;6.77;;;;;;;;;;5094666;28;20431;-63
2021/04/10 11:32:05;;;;;;;8.00;5.23;;;;;;;;;;5094652;28;20525;-63
2021/04/10 11:34:33;;;;;;;7.57;4.87;;;;;;;;;;5094637;28;20465;-64
2021/04/10 11:37:02;;;;;;;8.00;3.50;;;;;;;;;;5103593;28;20466;-65
2021/04/10 11:39:29;;;;;;;9.90;5.00;;;;;;;;;;5104988;28;20817;-65
2021/04/10 11:41:56;;;;;;;10.70;6.13;;;;;;;;;;5107728;28;20457;-65
2021/04/10 11:44:23;;;;;;;10.02;4.97;;;;;;;;;;5108081;28;20445;-65
2021/04/10 11:46:59;;;;;;;10.25;6.05;;;;;;;;;;5104442;28;20227;-65
2021/04/10 11:49:26;;;;;;;7.88;4.93;;;;;;;;;;5102260;28;20188;-65
2021/04/10 11:51:53;;;;;;;10.67;5.30;;;;;;;;;;5101128;28;20204;-65
2021/04/10 11:54:30;;;;;;;6.30;4.50;;;;;;;;;;5102143;28;20446;-64
2021/04/10 11:56:57;;;;;;;10.13;5.00;;;;;;;;;;5104517;28;20430;-65
2021/04/10 11:59:31;;;;;;;8.77;4.33;;;;;;;;;;5106377;28;20437;-63
2021/04/10 12:02:01;;;;;;;8.67;5.00;;;;;;;;;;5104555;28;20433;-64
2021/04/10 12:04:28;;;;;;;8.97;4.90;;;;;;;;;;5102740;28;20462;-64
2021/04/10 12:07:04;;;;;;;8.07;4.83;;;;;;;;;;5102950;28;20931;-65
2021/04/10 12:09:33;;;;;;;11.97;5.20;;;;;;;;;;5102536;28;20476;-64
2021/04/10 12:12:00;;;;;;;7.10;4.33;;;;;;;;;;5101516;28;20454;-66
2021/04/10 12:14:27;;;;;;;10.53;5.63;;;;;;;;;;5104774;28;20531;-64
2021/04/10 12:16:54;;;;;;;7.80;4.80;;;;;;;;;;5101350;28;20471;-65
2021/04/10 12:19:23;;;;;;;9.50;5.17;;;;;;;;;;5101732;28;20960;-65
2021/04/10 12:21:50;;;;;;;9.90;6.40;;;;;;;;;;5094046;28;20529;-64
2021/04/10 12:24:16;;;;;;;13.00;6.30;;;;;;;;;;5093206;28;20511;-64
2021/04/10 12:26:44;;;;;;;12.30;5.80;;;;;;;;;;5094089;28;20486;-64
2021/04/10 12:29:11;;;;;;;12.83;5.13;;;;;;;;;;5106243;28;20438;-64
2021/04/10 12:31:38;;;;;;;11.13;4.33;;;;;;;;;;5107161;28;20446;-65
2021/04/10 12:34:04;;;;;;;9.00;4.67;;;;;;;;;;5099420;28;20449;-64
2021/04/10 12:36:31;;;;;;;10.53;5.10;;;;;;;;;;5099121;28;20495;-64
2021/04/10 12:38:58;;;;;;;9.17;5.70;;;;;;;;;;5098691;28;20457;-64
2021/04/10 12:41:25;;;;;;;10.87;4.23;;;;;;;;;;5099155;28;20446;-63
2021/04/10 12:43:53;;;;;;;14.00;6.10;;;;;;;;;;5098944;28;20438;-65
2021/04/10 12:46:19;;;;;;;9.30;5.83;;;;;;;;;;5098683;28;20466;-63
2021/04/10 12:48:46;;;;;;;10.47;5.93;;;;;;;;;;5098401;28;20453;-63
2021/04/10 12:51:13;;;;;;;6.37;4.87;;;;;;;;;;5098552;28;20450;-64
2021/04/10 12:53:40;;;;;;;10.77;5.20;;;;;;;;;;5097726;28;20496;-64
2021/04/10 12:56:07;;;;;;;7.50;5.43;;;;;;;;;;5097884;28;20983;-64
2021/04/10 12:58:34;;;;;;;6.60;5.37;;;;;;;;;;5097776;28;20496;-65
2021/04/10 13:01:03;;;;;;;12.57;7.23;;;;;;;;;;5096646;28;20446;-65
2021/04/10 13:03:30;;;;;;;6.70;5.27;;;;;;;;;;5096779;28;20446;-64
2021/04/10 13:05:57;;;;;;;9.25;5.95;;;;;;;;;;5096502;28;21001;-65
2021/04/10 13:08:24;;;;;;;9.77;5.97;;;;;;;;;;5097411;28;20211;-65
2021/04/10 13:10:50;;;;;;;9.80;5.47;;;;;;;;;;5097399;28;20446;-65
2021/04/10 13:13:18;;;;;;;12.93;5.23;;;;;;;;;;5096731;28;20438;-65
2021/04/10 13:15:45;;;;;;;12.90;6.00;;;;;;;;;;5096845;28;20458;-64
2021/04/10 13:18:13;;;;;;;14.23;6.30;;;;;;;;;;5096449;28;20515;-65
2021/04/10 13:20:39;;;;;;;9.13;6.13;;;;;;;;;;5096290;28;20722;-63
2021/04/10 13:23:06;;;;;;;12.03;6.83;;;;;;;;;;5096371;28;20969;-63
2021/04/10 13:25:33;;;;;;;13.35;5.38;;;;;;;;;;5096963;28;20458;-64
2021/04/10 13:28:00;;;;;;;15.33;6.23;;;;;;;;;;5096486;28;20220;-64
2021/04/10 13:30:26;;;;;;;9.23;5.18;;;;;;;;;;5096241;28;20444;-63
2021/04/10 13:32:53;;;;;;;10.63;6.80;;;;;;;;;;5096756;28;20278;-65
2021/04/10 13:35:23;;;;;;;11.77;6.50;;;;;;;;;;5096186;28;20466;-63
2021/04/10 13:37:50;;;;;;;12.15;7.10;;;;;;;;;;5096067;28;20431;-63
2021/04/10 13:40:17;;;;;;;15.57;7.47;;;;;;;;;;5095935;28;20249;-64
2021/04/10 13:42:43;;;;;;;11.23;6.43;;;;;;;;;;5096128;28;20200;-64
2021/04/10 13:45:11;;;;;;;9.63;5.53;;;;;;;;;;5096228;28;20224;-65
2021/04/10 13:47:37;;;;;;;13.90;6.47;;;;;;;;;;5095823;28;20478;-65
2021/04/10 13:50:04;;;;;;;13.60;6.15;;;;;;;;;;5096494;28;20204;-65
2021/04/10 13:52:32;;;;;;;10.20;6.47;;;;;;;;;;5096145;28;20207;-63
2021/04/10 13:54:59;;;;;;;14.85;6.30;;;;;;;;;;5096323;28;20235;-64
2021/04/10 13:57:26;;;;;;;16.10;10.02;;;;;;;;;;5098054;28;20203;-63
2021/04/10 13:59:53;;;;;;;11.80;6.28;;;;;;;;;;5098333;28;20257;-62
2021/04/10 14:02:19;;;;;;;7.93;5.93;;;;;;;;;;5097414;28;20687;-64
2021/04/10 14:05:05;;;;;;;12.98;5.70;;;;;;;;;;5095518;28;20470;-63
2021/04/10 14:07:32;;;;;;;14.40;5.50;;;;;;;;;;5095946;28;20593;-62
2021/04/10 14:09:59;;;;;;;13.10;6.50;;;;;;;;;;5096016;28;20197;-63
2021/04/10 14:12:26;;;;;;;9.60;6.18;;;;;;;;;;5096026;28;20204;-64
2021/04/10 14:14:53;;;;;;;12.32;6.55;;;;;;;;;;5095183;28;20774;-64
2021/04/10 14:17:20;;;;;;;10.55;7.22;;;;;;;;;;5095851;28;20664;-63
2021/04/10 14:19:49;;;;;;;11.20;7.10;;;;;;;;;;5095638;28;20204;-63
2021/04/10 14:22:17;;;;;;;10.18;6.63;;;;;;;;;;5095710;28;20442;-64
2021/04/10 14:24:43;;;;;;;14.68;8.25;;;;;;;;;;5096014;28;20289;-64
2021/04/10 14:27:10;;;;;;;13.73;8.48;;;;;;;;;;5095138;28;20220;-66
2021/04/10 14:29:41;;;;;;;11.87;7.53;;;;;;;;;;5095667;28;20204;-64
2021/04/10 14:32:08;;;;;;;14.43;8.47;;;;;;;;;;5095196;28;20431;-64
2021/04/10 14:34:35;;;;;;;11.02;7.78;;;;;;;;;;5095490;28;20545;-63
2021/04/10 14:37:01;;;;;;;10.52;8.00;;;;;;;;;;5096626;28;20573;-64
2021/04/10 14:39:29;;;;;;;12.95;8.02;;;;;;;;;;5097227;28;20207;-63